Saint Anne/Alderney Island, United Kingdom
Current Conditions -  °F | °C
As of 4:50 PM on Wednesday 22 Oct 2014 (Local Time) from EGJA Reporting Station
Scattered Clouds Scattered Clouds  
Wind Chill: 55°   Ceiling: Unl
Heat Index: 55°   Visibility: 6mi
Dew Point: 46°   Wind: 14mph
Humidity: 72%   Direction: 270°W
Pressure: 30.33"   Gusts: NA
Location:  49.67°N, 2.17°W
Report Text: EGJA 221550Z 27012KT 9999 SCT025 13/08 Q1027
Loading
Personal Weather Stations






























Interactive Weather Map
Tropical Storm Tracking
New forecast layout! Learn more

10-Day Weather Forecast

Advertisements
Track Severe Weather on mobile